Time;durP1;ratioP1;P1;durP2;ratioP2;P2;SDS_P1;SDS_P2;PMS_P1;PMS_P2;Temp;Humidity;BMP_temperature;BMP_pressure;BME280_temperature;BME280_humidity;BME280_pressure;Samples;Min_cycle;Max_cycle;Signal;HPM_P1;HPM_P2
2023/10/28 00:00:59;;;;;;;3.55;1.48;;;11.10;99.90;;;;;;5034328;28;20067;-76
2023/10/28 00:03:26;;;;;;;1.83;1.00;;;11.20;99.90;;;;;;5040621;28;20414;-76
2023/10/28 00:05:51;;;;;;;5.20;1.60;;;11.20;99.90;;;;;;5041148;28;20070;-76
2023/10/28 00:08:17;;;;;;;6.75;1.20;;;11.10;99.90;;;;;;5034740;28;20025;-76
2023/10/28 00:10:45;;;;;;;3.33;1.40;;;11.10;99.90;;;;;;5035074;28;20556;-76
2023/10/28 00:13:11;;;;;;;2.63;1.33;;;11.10;99.90;;;;;;5038340;28;20028;-76
2023/10/28 00:15:38;;;;;;;6.40;2.30;;;11.00;99.90;;;;;;5033751;28;20087;-76
2023/10/28 00:18:04;;;;;;;3.17;1.20;;;11.00;99.90;;;;;;5046636;28;20040;-76
2023/10/28 00:20:30;;;;;;;3.35;1.40;;;11.00;99.90;;;;;;5042980;28;20025;-76
2023/10/28 00:22:57;;;;;;;3.70;1.38;;;10.90;99.90;;;;;;5037004;28;20025;-76
2023/10/28 00:25:25;;;;;;;3.08;1.30;;;11.00;99.90;;;;;;5038825;28;20033;-76
2023/10/28 00:27:55;;;;;;;3.30;1.75;;;10.90;99.90;;;;;;5043285;28;20401;-76
2023/10/28 00:30:25;;;;;;;5.07;1.50;;;10.90;99.90;;;;;;5047274;28;20091;-76
2023/10/28 00:32:52;;;;;;;3.67;1.58;;;10.80;99.90;;;;;;5048964;28;20602;-76
2023/10/28 00:35:19;;;;;;;3.60;1.50;;;10.80;99.90;;;;;;5050374;28;20021;-76
2023/10/28 00:37:45;;;;;;;5.07;1.52;;;10.90;99.90;;;;;;5063622;28;20017;-76
2023/10/28 00:40:11;;;;;;;5.32;1.27;;;10.70;99.90;;;;;;5053683;28;20430;-76
2023/10/28 00:42:37;;;;;;;3.13;1.35;;;10.80;99.90;;;;;;5040525;28;20025;-76
2023/10/28 00:45:08;;;;;;;4.35;1.20;;;10.80;99.90;;;;;;5049270;28;20068;-76
2023/10/28 00:47:38;;;;;;;2.20;1.20;;;10.90;99.90;;;;;;5031647;28;20052;-76
2023/10/28 00:50:11;;;;;;;4.50;1.48;;;10.60;99.90;;;;;;5043302;28;20380;-76
2023/10/28 00:53:03;;;;;;;7.88;1.23;;;10.60;99.90;;;;;;5039615;28;20399;-75
2023/10/28 00:55:32;;;;;;;2.22;1.20;;;10.60;99.90;;;;;;5043275;28;20090;-75
2023/10/28 00:57:58;;;;;;;2.80;1.27;;;10.60;99.90;;;;;;5028323;28;20033;-76
2023/10/28 01:00:24;;;;;;;5.60;1.35;;;10.60;99.90;;;;;;5036836;28;20066;-76
2023/10/28 01:02:51;;;;;;;3.72;1.63;;;10.70;99.90;;;;;;5046281;28;20581;-76
2023/10/28 01:05:17;;;;;;;3.70;1.25;;;10.80;99.90;;;;;;5038522;28;20025;-76
2023/10/28 01:07:47;;;;;;;3.67;1.65;;;10.80;99.90;;;;;;5029106;28;20421;-76
2023/10/28 01:10:25;;;;;;;4.50;1.30;;;10.80;99.90;;;;;;5031986;28;20033;-76
2023/10/28 01:12:50;;;;;;;3.03;1.13;;;11.20;99.90;;;;;;5037475;28;20063;-76
2023/10/28 01:15:16;;;;;;;2.45;1.30;;;11.20;99.90;;;;;;5039855;28;20056;-76
2023/10/28 01:17:42;;;;;;;2.78;1.10;;;11.20;99.90;;;;;;5045738;28;20032;-75
2023/10/28 01:20:10;;;;;;;2.47;1.17;;;11.10;99.90;;;;;;5042385;28;20051;-76
2023/10/28 01:22:36;;;;;;;3.88;1.08;;;11.10;99.90;;;;;;5046807;28;20115;-75
2023/10/28 01:25:02;;;;;;;2.83;1.08;;;11.00;99.90;;;;;;5029434;28;20140;-78
2023/10/28 01:27:28;;;;;;;7.68;1.85;;;11.00;99.90;;;;;;5038143;28;20035;-76
2023/10/28 01:29:55;;;;;;;3.75;1.33;;;11.10;99.90;;;;;;5045145;28;20033;-75
2023/10/28 01:32:21;;;;;;;3.28;1.13;;;11.00;99.90;;;;;;5029525;28;20064;-76
2023/10/28 01:34:51;;;;;;;3.00;1.02;;;11.10;99.90;;;;;;5034033;28;20064;-77
2023/10/28 01:37:17;;;;;;;4.15;1.20;;;11.00;99.90;;;;;;5039952;28;20027;-76
2023/10/28 01:39:52;;;;;;;3.75;1.27;;;11.00;99.90;;;;;;5036684;28;20021;-78
2023/10/28 01:42:22;;;;;;;3.95;0.95;;;10.90;99.90;;;;;;5041064;28;20018;-76
2023/10/28 01:44:48;;;;;;;4.45;1.25;;;11.20;99.90;;;;;;5037448;28;20477;-76
2023/10/28 01:47:15;;;;;;;2.15;1.00;;;11.00;99.90;;;;;;5045787;28;20391;-76
2023/10/28 01:49:44;;;;;;;7.63;1.40;;;10.80;99.90;;;;;;5032228;28;20557;-77
2023/10/28 01:52:12;;;;;;;2.53;0.95;;;10.70;99.90;;;;;;5045117;28;20552;-76
2023/10/28 01:54:37;;;;;;;2.08;0.80;;;10.70;99.90;;;;;;5046998;28;20059;-76
2023/10/28 01:57:05;;;;;;;2.85;1.25;;;10.90;99.90;;;;;;5048133;28;20060;-76
2023/10/28 01:59:32;;;;;;;1.95;1.00;;;10.80;99.90;;;;;;5044468;28;20119;-76
2023/10/28 02:02:01;;;;;;;3.55;1.17;;;11.00;99.90;;;;;;5043872;28;20045;-76
2023/10/28 02:04:27;;;;;;;2.83;0.95;;;10.80;99.90;;;;;;5046846;28;20021;-76
2023/10/28 02:06:53;;;;;;;1.92;0.98;;;10.70;99.90;;;;;;5047778;28;20040;-75
2023/10/28 02:09:18;;;;;;;3.78;1.48;;;10.60;99.90;;;;;;5033095;28;20030;-76
2023/10/28 02:11:44;;;;;;;3.33;1.10;;;10.50;99.90;;;;;;5036466;28;20033;-75
2023/10/28 02:14:11;;;;;;;7.22;1.30;;;10.60;99.90;;;;;;5041986;28;20042;-76
2023/10/28 02:16:38;;;;;;;3.22;1.48;;;10.60;99.90;;;;;;5046033;28;20032;-76
2023/10/28 02:19:05;;;;;;;2.63;1.00;;;10.50;99.90;;;;;;5035956;28;20033;-76
2023/10/28 02:21:31;;;;;;;2.47;1.00;;;10.30;99.90;;;;;;5041675;28;20074;-76
2023/10/28 02:23:57;;;;;;;2.28;1.05;;;10.30;99.90;;;;;;5049546;28;20037;-76
2023/10/28 02:26:22;;;;;;;3.20;1.45;;;10.20;99.90;;;;;;5034948;28;20040;-75
2023/10/28 02:28:48;;;;;;;3.80;0.90;;;10.20;99.90;;;;;;5047506;28;20041;-76
2023/10/28 02:31:14;;;;;;;3.25;1.05;;;10.20;99.90;;;;;;5039794;28;20124;-76
2023/10/28 02:33:39;;;;;;;2.75;1.42;;;10.20;99.90;;;;;;5045064;28;20030;-75
2023/10/28 02:36:06;;;;;;;3.40;1.92;;;10.20;99.90;;;;;;5051060;28;20131;-76
2023/10/28 02:38:32;;;;;;;2.05;1.02;;;10.00;99.90;;;;;;5039267;28;20044;-76
2023/10/28 02:40:58;;;;;;;3.42;1.38;;;9.90;99.90;;;;;;5047610;28;20418;-76
2023/10/28 02:43:24;;;;;;;2.85;1.17;;;9.80;99.90;;;;;;5045790;28;20025;-76
2023/10/28 02:45:50;;;;;;;2.45;1.23;;;9.70;99.90;;;;;;5046980;28;20033;-76
2023/10/28 02:48:16;;;;;;;4.22;1.52;;;9.80;99.90;;;;;;5030186;28;20041;-76
2023/10/28 02:50:41;;;;;;;3.90;1.13;;;10.00;99.90;;;;;;5033733;28;20118;-76
2023/10/28 02:53:07;;;;;;;5.40;1.20;;;10.10;99.90;;;;;;5051788;28;20060;-75
2023/10/28 02:55:36;;;;;;;3.08;1.35;;;10.10;99.90;;;;;;5042062;28;20043;-76
2023/10/28 02:58:04;;;;;;;2.75;1.05;;;10.20;99.90;;;;;;5047129;28;20028;-76
2023/10/28 03:00:30;;;;;;;3.20;1.00;;;10.30;99.90;;;;;;5047903;28;20033;-76
2023/10/28 03:02:57;;;;;;;5.78;1.60;;;10.40;99.90;;;;;;5044951;28;20479;-76
2023/10/28 03:05:24;;;;;;;3.50;1.45;;;10.20;99.90;;;;;;5044919;28;20925;-76
2023/10/28 03:07:50;;;;;;;3.88;1.20;;;10.20;99.90;;;;;;5035534;28;20042;-75
2023/10/28 03:10:16;;;;;;;2.03;1.17;;;10.20;99.90;;;;;;5042831;28;20044;-76
2023/10/28 03:12:42;;;;;;;4.28;1.65;;;9.90;99.90;;;;;;5038568;28;20025;-76
2023/10/28 03:15:10;;;;;;;3.45;0.90;;;9.90;99.90;;;;;;5046926;28;20043;-77
2023/10/28 03:17:36;;;;;;;3.88;1.15;;;9.90;99.90;;;;;;5032684;28;20022;-77
2023/10/28 03:20:03;;;;;;;3.65;1.42;;;10.10;99.90;;;;;;5034646;28;20033;-76
2023/10/28 03:22:29;;;;;;;3.80;1.77;;;10.10;99.90;;;;;;5042966;28;20021;-76
2023/10/28 03:24:55;;;;;;;3.35;1.20;;;10.10;99.90;;;;;;5047054;28;20093;-76
2023/10/28 03:27:20;;;;;;;1.75;0.77;;;10.20;99.90;;;;;;5040806;28;20029;-77
2023/10/28 03:29:46;;;;;;;4.70;1.20;;;10.60;99.90;;;;;;5035953;28;20033;-76
2023/10/28 03:32:12;;;;;;;3.35;1.13;;;10.60;99.90;;;;;;5039481;28;20033;-76
2023/10/28 03:34:38;;;;;;;5.15;1.27;;;10.60;99.90;;;;;;5020370;28;20025;-77
2023/10/28 03:37:03;;;;;;;4.55;0.95;;;10.50;99.90;;;;;;5047757;28;20123;-76
2023/10/28 03:39:29;;;;;;;2.15;0.90;;;10.40;99.90;;;;;;5040218;28;20091;-76
2023/10/28 03:41:55;;;;;;;6.78;1.25;;;10.50;99.90;;;;;;5043232;28;20017;-77
2023/10/28 03:44:21;;;;;;;2.72;1.00;;;10.70;99.90;;;;;;5047038;28;20042;-76
2023/10/28 03:46:46;;;;;;;2.08;1.05;;;10.60;99.90;;;;;;5043239;28;20040;-76
2023/10/28 03:49:12;;;;;;;2.10;1.00;;;10.50;99.90;;;;;;5038866;28;20032;-76
2023/10/28 03:51:41;;;;;;;2.75;1.10;;;10.40;99.90;;;;;;5037582;28;20033;-75
2023/10/28 03:54:07;;;;;;;4.93;1.20;;;10.30;99.90;;;;;;5048503;28;20064;-76
2023/10/28 03:56:32;;;;;;;2.95;1.27;;;10.30;99.90;;;;;;5043556;28;20115;-77
2023/10/28 03:59:00;;;;;;;5.55;1.95;;;10.10;99.90;;;;;;5032215;28;20043;-77
2023/10/28 04:01:25;;;;;;;3.83;1.20;;;9.90;99.90;;;;;;5034680;28;20042;-76
2023/10/28 04:03:51;;;;;;;3.28;1.30;;;9.80;99.90;;;;;;5034144;28;20678;-77
2023/10/28 04:06:17;;;;;;;4.13;1.15;;;10.10;99.90;;;;;;5026535;28;20044;-76
2023/10/28 04:08:42;;;;;;;1.80;0.90;;;10.40;99.90;;;;;;5032724;28;20118;-76
2023/10/28 04:11:09;;;;;;;3.97;1.42;;;10.60;99.90;;;;;;5035451;28;20041;-77
2023/10/28 04:13:34;;;;;;;8.40;1.48;;;10.60;99.90;;;;;;5038194;28;20576;-76
2023/10/28 04:16:00;;;;;;;3.22;1.10;;;10.50;99.90;;;;;;5041017;28;20087;-77
2023/10/28 04:18:26;;;;;;;5.82;1.20;;;10.40;99.90;;;;;;5029734;28;20034;-76
2023/10/28 04:20:52;;;;;;;1.95;0.90;;;10.30;99.90;;;;;;5031960;28;20087;-76
2023/10/28 04:23:18;;;;;;;2.92;1.40;;;10.50;99.90;;;;;;5041744;28;20474;-76
2023/10/28 04:25:44;;;;;;;5.15;1.85;;;10.50;99.90;;;;;;5047433;28;20041;-77
2023/10/28 04:28:09;;;;;;;5.22;1.80;;;10.40;99.90;;;;;;5037646;28;20563;-77
2023/10/28 04:30:35;;;;;;;1.83;0.95;;;10.20;99.90;;;;;;5039291;28;20030;-76
2023/10/28 04:33:01;;;;;;;3.03;1.00;;;10.30;99.90;;;;;;5039588;28;20116;-77
2023/10/28 04:35:27;;;;;;;2.85;1.35;;;10.40;99.90;;;;;;5046073;28;20021;-76
2023/10/28 04:37:53;;;;;;;1.73;0.85;;;10.40;99.90;;;;;;5040400;28;20029;-76
2023/10/28 04:40:18;;;;;;;2.20;0.80;;;10.50;99.90;;;;;;5044401;28;20025;-77
2023/10/28 04:42:47;;;;;;;2.10;0.95;;;10.60;99.90;;;;;;5041521;28;20035;-76
2023/10/28 04:45:13;;;;;;;2.78;1.08;;;10.70;99.90;;;;;;5023315;28;20379;-77
2023/10/28 04:47:38;;;;;;;2.33;0.95;;;10.70;99.90;;;;;;5041461;28;20115;-76
2023/10/28 04:50:07;;;;;;;3.65;0.82;;;10.70;99.90;;;;;;5046159;28;20124;-76
2023/10/28 04:52:33;;;;;;;1.90;0.88;;;10.60;99.90;;;;;;5031184;28;20525;-77
2023/10/28 04:54:59;;;;;;;2.85;1.00;;;10.60;99.90;;;;;;5059188;28;20025;-76
2023/10/28 04:57:25;;;;;;;4.65;1.80;;;10.60;99.90;;;;;;5045787;28;20030;-76
2023/10/28 04:59:51;;;;;;;3.67;1.23;;;10.50;99.90;;;;;;5045356;28;20131;-76
2023/10/28 05:02:16;;;;;;;4.43;1.30;;;10.60;99.90;;;;;;5023508;28;20080;-77
2023/10/28 05:04:42;;;;;;;3.15;1.08;;;10.40;99.90;;;;;;5029902;28;20034;-76
2023/10/28 05:07:08;;;;;;;3.35;1.15;;;10.30;99.90;;;;;;5032560;28;20526;-76
2023/10/28 05:09:36;;;;;;;4.90;0.93;;;10.40;99.90;;;;;;5039616;28;20489;-76
2023/10/28 05:12:02;;;;;;;8.80;1.73;;;10.40;99.90;;;;;;5031729;28;20045;-76
2023/10/28 05:14:27;;;;;;;4.25;1.38;;;10.40;99.90;;;;;;5032199;28;20041;-76
2023/10/28 05:16:54;;;;;;;2.90;0.90;;;10.40;99.90;;;;;;5038179;28;20033;-76
2023/10/28 05:19:23;;;;;;;2.25;0.90;;;10.30;99.90;;;;;;5032041;28;20196;-77
2023/10/28 05:21:49;;;;;;;5.80;1.05;;;10.20;99.90;;;;;;5035941;28;20025;-76
2023/10/28 05:24:16;;;;;;;3.35;1.08;;;10.10;99.90;;;;;;5033877;28;20079;-77
2023/10/28 05:26:43;;;;;;;2.47;0.90;;;10.10;99.90;;;;;;5028026;28;20112;-76
2023/10/28 05:29:09;;;;;;;1.38;0.70;;;10.10;99.90;;;;;;5035088;28;20032;-76
2023/10/28 05:31:36;;;;;;;8.07;1.40;;;10.00;99.90;;;;;;5045467;28;20487;-76
2023/10/28 05:34:02;;;;;;;2.78;1.10;;;10.00;99.90;;;;;;5035490;28;20043;-77
2023/10/28 05:36:28;;;;;;;1.70;0.68;;;10.00;99.90;;;;;;5031588;28;20029;-76
2023/10/28 05:38:54;;;;;;;2.05;0.93;;;9.90;99.90;;;;;;5029420;28;20104;-76
2023/10/28 05:41:20;;;;;;;4.50;0.90;;;9.90;99.90;;;;;;5039245;28;20029;-76
2023/10/28 05:43:46;;;;;;;2.67;1.17;;;10.00;99.90;;;;;;5032571;28;20029;-77
2023/10/28 05:46:13;;;;;;;7.55;0.95;;;10.10;99.90;;;;;;5034562;28;20085;-75
2023/10/28 05:48:39;;;;;;;3.90;0.90;;;10.20;99.90;;;;;;5023586;28;20029;-76
2023/10/28 05:51:05;;;;;;;3.20;0.98;;;10.10;99.90;;;;;;5027516;28;20044;-76
2023/10/28 05:53:31;;;;;;;5.13;0.88;;;9.90;99.90;;;;;;5029538;28;20029;-76
2023/10/28 05:55:57;;;;;;;3.65;1.20;;;9.90;99.90;;;;;;5035727;28;20552;-76
2023/10/28 05:58:23;;;;;;;2.42;0.90;;;9.90;99.90;;;;;;5031382;28;20502;-77
2023/10/28 06:00:49;;;;;;;2.53;1.10;;;10.00;99.90;;;;;;5034362;28;20110;-76
2023/10/28 06:03:15;;;;;;;2.67;1.27;;;10.10;99.90;;;;;;5026779;28;20029;-77
2023/10/28 06:05:40;;;;;;;37.15;19.42;;;10.10;99.90;;;;;;5022754;28;20079;-76
2023/10/28 06:08:08;;;;;;;3.15;1.48;;;10.10;99.90;;;;;;5024565;28;20037;-76
2023/10/28 06:10:37;;;;;;;3.00;1.20;;;9.90;99.90;;;;;;5024359;28;20044;-77
2023/10/28 06:13:03;;;;;;;2.35;1.10;;;9.90;99.90;;;;;;5027091;28;20030;-77
2023/10/28 06:15:29;;;;;;;5.00;1.10;;;10.00;99.90;;;;;;5037825;28;20029;-76
2023/10/28 06:17:57;;;;;;;3.63;1.10;;;10.00;99.90;;;;;;5035089;28;20416;-76
2023/10/28 06:20:22;;;;;;;4.28;1.25;;;10.10;99.90;;;;;;5033443;28;20025;-76
2023/10/28 06:22:48;;;;;;;2.28;0.82;;;10.20;99.90;;;;;;5036408;28;20217;-76
2023/10/28 06:25:14;;;;;;;3.28;1.33;;;10.20;99.90;;;;;;5037536;28;20482;-76
2023/10/28 06:27:40;;;;;;;4.60;2.17;;;10.20;99.90;;;;;;5037789;28;20017;-77
2023/10/28 06:30:07;;;;;;;3.38;1.52;;;10.20;99.90;;;;;;5036506;28;20116;-77
2023/10/28 06:32:33;;;;;;;2.45;1.08;;;10.10;99.90;;;;;;5024647;28;20045;-76
2023/10/28 06:34:58;;;;;;;4.63;1.20;;;10.00;99.90;;;;;;5041679;28;20029;-77
2023/10/28 06:37:24;;;;;;;2.92;1.20;;;9.90;99.90;;;;;;5035751;28;20026;-76
2023/10/28 06:39:49;;;;;;;3.53;1.63;;;10.10;99.90;;;;;;5033334;28;20030;-76
2023/10/28 06:42:15;;;;;;;3.05;1.30;;;10.10;99.90;;;;;;5042901;28;20075;-76
2023/10/28 06:44:43;;;;;;;2.90;1.20;;;10.20;99.90;;;;;;5035768;28;20052;-77
2023/10/28 06:47:09;;;;;;;3.72;1.15;;;10.40;99.90;;;;;;5038539;28;20585;-77
2023/10/28 06:49:35;;;;;;;3.90;1.45;;;10.50;99.90;;;;;;5044414;28;20104;-76
2023/10/28 06:52:01;;;;;;;3.97;1.55;;;10.60;99.90;;;;;;5036020;28;20494;-78
2023/10/28 06:54:27;;;;;;;2.28;1.30;;;10.60;99.90;;;;;;5028033;28;20493;-76
2023/10/28 06:56:52;;;;;;;2.53;1.38;;;10.60;99.90;;;;;;5034809;28;20098;-81
2023/10/28 06:59:18;;;;;;;4.72;1.20;;;10.60;99.90;;;;;;5035966;28;20772;-79
2023/10/28 07:01:44;;;;;;;3.00;1.20;;;10.60;99.90;;;;;;5032486;28;20044;-78
2023/10/28 07:04:11;;;;;;;3.60;1.20;;;10.60;99.90;;;;;;5026742;28;23333;-78
2023/10/28 07:06:37;;;;;;;3.22;1.23;;;10.70;99.90;;;;;;5020548;28;20035;-78
2023/10/28 07:09:03;;;;;;;2.58;0.90;;;10.70;99.90;;;;;;5025835;28;20118;-78
2023/10/28 07:11:29;;;;;;;2.00;0.90;;;10.80;99.90;;;;;;5037367;28;20040;-80
2023/10/28 07:13:55;;;;;;;5.40;1.30;;;10.90;99.90;;;;;;5035727;28;20029;-80
2023/10/28 07:16:22;;;;;;;3.95;1.33;;;11.00;99.90;;;;;;5037518;28;20021;-82
2023/10/28 07:18:48;;;;;;;2.72;1.20;;;11.10;99.90;;;;;;5037431;28;20087;-81
2023/10/28 07:21:14;;;;;;;1.88;0.70;;;11.00;99.90;;;;;;5028251;28;20060;-81
2023/10/28 07:23:41;;;;;;;2.20;0.80;;;10.90;99.90;;;;;;5036990;28;20511;-82
2023/10/28 07:26:06;;;;;;;2.53;1.10;;;10.90;99.90;;;;;;5032259;28;20210;-80
2023/10/28 07:28:37;;;;;;;2.97;1.15;;;10.90;99.90;;;;;;5036319;28;20512;-81
2023/10/28 07:31:03;;;;;;;2.33;1.00;;;11.00;99.90;;;;;;5042170;28;20073;-81
2023/10/28 07:33:29;;;;;;;2.50;0.95;;;11.00;99.90;;;;;;5039827;28;20541;-80
2023/10/28 07:35:54;;;;;;;3.47;1.30;;;11.10;99.90;;;;;;5030508;28;20025;-80
2023/10/28 07:38:21;;;;;;;3.95;1.15;;;11.20;99.90;;;;;;5036466;28;22483;-81
2023/10/28 07:40:48;;;;;;;4.40;2.00;;;11.30;99.90;;;;;;5040810;28;21555;-80
2023/10/28 07:43:19;;;;;;;3.67;1.33;;;11.40;99.90;;;;;;5036283;28;20037;-77
2023/10/28 07:45:47;;;;;;;4.93;1.73;;;11.30;99.90;;;;;;5039690;28;20032;-79
2023/10/28 07:48:14;;;;;;;2.78;1.30;;;11.30;99.90;;;;;;5036874;28;20503;-77
2023/10/28 07:50:43;;;;;;;2.92;1.20;;;11.40;99.90;;;;;;5069655;28;20082;-78
2023/10/28 07:53:09;;;;;;;3.33;1.40;;;11.50;99.90;;;;;;5061147;28;20028;-77
2023/10/28 07:55:38;;;;;;;2.65;1.15;;;11.60;99.90;;;;;;5046736;28;20624;-78
2023/10/28 07:58:03;;;;;;;3.78;1.75;;;11.70;99.90;;;;;;5039207;28;20474;-78
2023/10/28 08:00:29;;;;;;;7.25;2.00;;;11.60;99.90;;;;;;5043682;28;20051;-79
2023/10/28 08:02:55;;;;;;;3.60;1.60;;;11.50;99.90;;;;;;5062995;28;20031;-79
2023/10/28 08:05:21;;;;;;;4.32;1.65;;;11.60;99.90;;;;;;5057427;28;20029;-78
2023/10/28 08:07:47;;;;;;;3.40;1.52;;;11.60;99.90;;;;;;5054537;28;20035;-79
2023/10/28 08:10:14;;;;;;;3.10;1.23;;;11.50;99.90;;;;;;5032941;28;20079;-79
2023/10/28 08:12:40;;;;;;;5.53;1.73;;;11.40;99.90;;;;;;5049536;28;20037;-80
2023/10/28 08:15:10;;;;;;;3.47;1.33;;;11.40;99.90;;;;;;5047838;28;20033;-78
2023/10/28 08:17:35;;;;;;;4.53;1.50;;;11.50;99.90;;;;;;5052614;28;20025;-78
2023/10/28 08:20:02;;;;;;;3.05;1.50;;;11.50;99.90;;;;;;5055575;28;20428;-78
2023/10/28 08:22:28;;;;;;;3.38;1.10;;;11.40;99.90;;;;;;5050530;28;20593;-80
2023/10/28 08:24:54;;;;;;;3.95;0.90;;;11.40;99.90;;;;;;5034200;28;20025;-79
2023/10/28 08:27:19;;;;;;;9.35;1.90;;;11.40;99.90;;;;;;5038718;28;20033;-80
2023/10/28 08:29:46;;;;;;;6.47;1.63;;;11.40;99.90;;;;;;5032726;28;20025;-80
2023/10/28 08:32:13;;;;;;;4.35;1.23;;;11.30;99.90;;;;;;5049518;28;20041;-81
2023/10/28 08:34:39;;;;;;;3.72;0.90;;;11.40;99.90;;;;;;5049578;28;20173;-80
2023/10/28 08:37:05;;;;;;;2.67;1.05;;;11.40;99.90;;;;;;5050922;28;20494;-80
2023/10/28 08:39:31;;;;;;;5.75;1.00;;;11.30;99.90;;;;;;5065456;28;20063;-79
2023/10/28 08:42:04;;;;;;;2.80;0.98;;;11.40;99.90;;;;;;5048335;28;20124;-80
2023/10/28 08:44:32;;;;;;;1.70;0.90;;;11.40;99.90;;;;;;5048092;28;20025;-81
2023/10/28 08:46:59;;;;;;;3.53;0.90;;;11.50;99.90;;;;;;5024435;28;20029;-81
2023/10/28 08:49:27;;;;;;;2.65;1.00;;;11.70;99.90;;;;;;5039319;28;20033;-81
2023/10/28 08:51:58;;;;;;;3.20;1.10;;;11.60;99.90;;;;;;5030123;28;20033;-80
2023/10/28 08:54:26;;;;;;;2.28;1.05;;;11.60;99.90;;;;;;5035063;28;20502;-81
2023/10/28 08:56:59;;;;;;;5.32;1.73;;;11.60;99.90;;;;;;5030730;28;20033;-81
2023/10/28 08:59:27;;;;;;;2.78;1.40;;;11.70;99.90;;;;;;5034809;28;20394;-81
2023/10/28 09:01:53;;;;;;;3.70;1.10;;;11.80;99.90;;;;;;5036096;28;20049;-79
2023/10/28 09:04:21;;;;;;;2.17;0.90;;;12.00;99.90;;;;;;5032666;28;20029;-80
2023/10/28 09:06:48;;;;;;;2.50;0.93;;;12.00;99.90;;;;;;5042213;28;20032;-81
2023/10/28 09:09:18;;;;;;;2.15;0.90;;;12.00;99.90;;;;;;5037982;28;20013;-80
2023/10/28 09:11:45;;;;;;;3.67;1.00;;;12.10;99.90;;;;;;5052918;28;20033;-79
2023/10/28 09:14:11;;;;;;;1.52;0.77;;;12.10;99.90;;;;;;5041524;28;20063;-80
2023/10/28 09:16:37;;;;;;;2.05;1.00;;;12.10;99.90;;;;;;5039088;28;20057;-80
2023/10/28 09:19:04;;;;;;;4.82;1.10;;;12.10;99.90;;;;;;5042688;28;20067;-80
2023/10/28 09:21:31;;;;;;;3.78;1.30;;;12.10;99.90;;;;;;5050330;28;20116;-80
2023/10/28 09:24:00;;;;;;;5.38;1.38;;;12.20;99.90;;;;;;5050942;28;20042;-80
2023/10/28 09:26:27;;;;;;;2.20;1.00;;;12.30;99.90;;;;;;5050408;28;20498;-81
2023/10/28 09:28:52;;;;;;;4.78;1.20;;;12.30;99.90;;;;;;5048059;28;20045;-78
2023/10/28 09:31:25;;;;;;;2.83;1.35;;;12.20;99.90;;;;;;5047211;28;20083;-80
2023/10/28 09:33:52;;;;;;;7.57;4.10;;;12.30;99.90;;;;;;5046005;28;20380;-80
2023/10/28 09:36:17;;;;;;;9.88;5.60;;;12.30;99.90;;;;;;5053198;28;20118;-80
2023/10/28 09:38:45;;;;;;;13.88;6.28;;;12.30;99.90;;;;;;5048599;28;20598;-79
2023/10/28 09:41:12;;;;;;;4.95;2.33;;;12.40;99.90;;;;;;5051397;28;20103;-80
2023/10/28 09:43:38;;;;;;;3.80;1.20;;;12.40;99.90;;;;;;5050903;28;20032;-80
2023/10/28 09:46:07;;;;;;;19.63;6.80;;;12.30;99.90;;;;;;5049131;28;20040;-81
2023/10/28 09:48:45;;;;;;;31.63;13.75;;;12.20;99.90;;;;;;5047780;28;20650;-80
2023/10/28 09:51:13;;;;;;;9.82;5.13;;;12.30;99.90;;;;;;5048701;28;20045;-80
2023/10/28 09:53:43;;;;;;;3.65;1.98;;;12.40;99.90;;;;;;5050127;28;20060;-79
2023/10/28 09:56:12;;;;;;;12.90;5.45;;;12.40;99.90;;;;;;5049311;28;20024;-80
2023/10/28 09:58:50;;;;;;;21.58;13.73;;;12.50;99.90;;;;;;5050974;28;20044;-79
2023/10/28 10:01:21;;;;;;;14.48;8.57;;;12.60;99.90;;;;;;5048702;28;20098;-80
2023/10/28 10:04:02;;;;;;;4.18;1.80;;;12.70;99.90;;;;;;5044384;28;20525;-80
2023/10/28 10:06:27;;;;;;;4.70;1.83;;;12.70;99.90;;;;;;5050181;28;20028;-80
2023/10/28 10:08:55;;;;;;;4.15;2.40;;;12.70;99.90;;;;;;5048958;28;20043;-80
2023/10/28 10:11:25;;;;;;;2.97;1.23;;;12.80;99.90;;;;;;5047957;28;21848;-80
2023/10/28 10:13:51;;;;;;;3.17;1.25;;;12.90;99.90;;;;;;5050209;28;20025;-80
2023/10/28 10:16:40;;;;;;;5.57;1.60;;;13.00;99.90;;;;;;5049166;28;20063;-80
2023/10/28 10:19:11;;;;;;;4.00;1.70;;;13.20;99.90;;;;;;5042794;28;20045;-79
2023/10/28 10:21:37;;;;;;;2.60;1.10;;;13.10;99.90;;;;;;5045698;28;20029;-80
2023/10/28 10:24:04;;;;;;;3.55;1.27;;;13.20;99.90;;;;;;5049787;28;20059;-80
2023/10/28 10:26:35;;;;;;;2.83;1.05;;;13.20;99.90;;;;;;5050347;28;20069;-80
2023/10/28 10:29:05;;;;;;;4.10;1.27;;;13.30;99.90;;;;;;5040610;28;20087;-80
2023/10/28 10:31:34;;;;;;;3.33;1.17;;;13.40;99.90;;;;;;5029170;28;20064;-79
2023/10/28 10:34:05;;;;;;;4.22;1.15;;;13.50;99.90;;;;;;5027881;28;20033;-80
2023/10/28 10:36:38;;;;;;;2.95;1.27;;;13.60;99.90;;;;;;5027780;28;20033;-80
2023/10/28 10:39:15;;;;;;;3.13;1.65;;;13.70;99.90;;;;;;5026783;28;20526;-80
2023/10/28 10:41:49;;;;;;;3.50;1.50;;;13.70;99.90;;;;;;5025842;28;20029;-80
2023/10/28 10:44:31;;;;;;;4.05;1.77;;;13.70;99.90;;;;;;5030825;28;20439;-81
2023/10/28 10:46:58;;;;;;;4.38;1.40;;;13.70;99.90;;;;;;5033453;28;20099;-79
2023/10/28 10:49:24;;;;;;;3.50;1.80;;;13.90;99.90;;;;;;5031720;28;20035;-79
2023/10/28 10:51:50;;;;;;;3.58;1.30;;;14.00;99.90;;;;;;5034083;28;20030;-80
2023/10/28 10:54:19;;;;;;;2.53;1.00;;;14.20;99.90;;;;;;5032568;28;20025;-79
2023/10/28 10:56:45;;;;;;;3.72;1.38;;;14.10;99.90;;;;;;5037500;28;20029;-81
2023/10/28 10:59:11;;;;;;;4.82;1.55;;;14.00;99.90;;;;;;5033320;28;20080;-80
2023/10/28 11:01:40;;;;;;;6.68;1.48;;;14.20;99.90;;;;;;5034055;28;20449;-80
2023/10/28 11:04:06;;;;;;;3.08;1.58;;;14.40;99.90;;;;;;5034937;28;20049;-80
2023/10/28 11:06:33;;;;;;;3.80;1.42;;;14.30;99.90;;;;;;5042101;28;20071;-80
2023/10/28 11:09:09;;;;;;;2.72;1.23;;;14.40;99.90;;;;;;5029907;28;20034;-80
2023/10/28 11:11:38;;;;;;;3.78;1.48;;;14.60;99.90;;;;;;5035281;28;20048;-80
2023/10/28 11:14:04;;;;;;;2.78;1.30;;;14.90;99.90;;;;;;5035915;28;20073;-80
2023/10/28 11:16:31;;;;;;;2.75;1.50;;;14.70;99.90;;;;;;5041446;28;20438;-80
2023/10/28 11:18:59;;;;;;;1.90;1.42;;;14.70;99.90;;;;;;5031113;28;20047;-80
2023/10/28 11:21:25;;;;;;;3.28;1.40;;;14.90;99.90;;;;;;5036342;28;20045;-80
2023/10/28 11:23:52;;;;;;;7.35;1.58;;;14.90;99.90;;;;;;5031825;28;20455;-80
2023/10/28 11:26:22;;;;;;;3.78;1.02;;;15.20;99.90;;;;;;5040583;28;20086;-77
2023/10/28 11:28:48;;;;;;;2.63;1.05;;;15.40;99.90;;;;;;5040278;28;20021;-76
2023/10/28 11:31:17;;;;;;;2.65;1.00;;;15.30;99.90;;;;;;5036637;28;20037;-76
2023/10/28 11:33:43;;;;;;;3.65;1.10;;;15.30;99.90;;;;;;5040819;28;20512;-80
2023/10/28 11:36:09;;;;;;;4.70;1.15;;;15.50;99.90;;;;;;5031314;28;20037;-77
2023/10/28 11:38:35;;;;;;;1.85;0.77;;;15.60;99.90;;;;;;5033943;28;20532;-79
2023/10/28 11:41:05;;;;;;;2.33;0.90;;;15.50;99.90;;;;;;5039537;28;20032;-80
2023/10/28 11:43:31;;;;;;;5.45;1.13;;;15.60;99.90;;;;;;5036113;28;20042;-81
2023/10/28 11:45:56;;;;;;;2.90;1.05;;;15.60;99.90;;;;;;5032252;28;20112;-81
2023/10/28 11:48:22;;;;;;;2.78;0.82;;;15.80;99.90;;;;;;5039339;28;20517;-83
2023/10/28 11:50:48;;;;;;;3.80;1.75;;;16.00;99.90;;;;;;5030101;28;20053;-82
2023/10/28 11:53:27;;;;;;;2.40;1.35;;;15.90;99.90;;;;;;5031143;28;20028;-81
2023/10/28 11:55:54;;;;;;;2.80;1.15;;;15.90;99.90;;;;;;5026677;28;20108;-79
2023/10/28 11:58:20;;;;;;;4.45;1.10;;;16.00;99.90;;;;;;5027807;28;20067;-79
2023/10/28 12:00:50;;;;;;;3.72;1.17;;;16.10;99.90;;;;;;5024649;28;20053;-77
2023/10/28 12:03:17;;;;;;;3.80;0.95;;;16.30;99.90;;;;;;5025862;28;20069;-76
2023/10/28 12:05:43;;;;;;;4.22;1.13;;;16.40;99.90;;;;;;5030303;28;20037;-78
2023/10/28 12:08:11;;;;;;;2.40;1.00;;;16.30;99.90;;;;;;5030677;28;20375;-76
2023/10/28 12:10:43;;;;;;;2.63;1.20;;;16.20;99.90;;;;;;5024127;28;20033;-78
2023/10/28 12:13:11;;;;;;;2.80;1.20;;;16.10;99.90;;;;;;5026791;28;20108;-76
2023/10/28 12:15:38;;;;;;;4.63;1.10;;;16.10;99.90;;;;;;5031136;28;20029;-77
2023/10/28 12:18:03;;;;;;;6.03;1.25;;;16.00;99.90;;;;;;5025071;28;20033;-77
2023/10/28 12:20:29;;;;;;;4.38;1.50;;;16.10;99.90;;;;;;5027236;28;21040;-76
2023/10/28 12:22:56;;;;;;;2.65;1.35;;;16.40;99.90;;;;;;5029050;28;20426;-76
2023/10/28 12:25:23;;;;;;;5.60;1.30;;;16.70;99.90;;;;;;5036998;28;20020;-76
2023/10/28 12:27:50;;;;;;;3.40;0.95;;;16.80;99.90;;;;;;5026572;28;20345;-78
2023/10/28 12:30:16;;;;;;;3.13;1.23;;;16.90;99.90;;;;;;5029288;28;20040;-77
2023/10/28 12:32:42;;;;;;;2.20;1.13;;;16.70;99.90;;;;;;5029514;28;20037;-78
2023/10/28 12:35:08;;;;;;;2.28;1.00;;;16.60;99.90;;;;;;5022385;28;20032;-78
2023/10/28 12:37:34;;;;;;;2.88;1.00;;;16.60;99.90;;;;;;5029316;28;20375;-76
2023/10/28 12:39:59;;;;;;;3.65;0.95;;;16.60;99.90;;;;;;5031079;28;20029;-77
2023/10/28 12:42:25;;;;;;;2.17;0.88;;;16.70;99.90;;;;;;5021594;28;20033;-78
2023/10/28 12:44:51;;;;;;;2.97;0.98;;;16.50;99.90;;;;;;5023396;28;20036;-77
2023/10/28 12:47:17;;;;;;;3.55;1.67;;;16.40;99.90;;;;;;5022980;28;20041;-81